sensor_id;sensor_type;location;lat;lon;timestamp;P1;durP1;ratioP1;P2;durP2;ratioP2
12675;SDS011;63820;65.654;21.944;2023-03-01T00:02:16;2.87;;;0.90;;
12675;SDS011;63820;65.654;21.944;2023-03-01T00:05:01;2.10;;;0.70;;
12675;SDS011;63820;65.654;21.944;2023-03-01T00:07:45;4.30;;;0.60;;
12675;SDS011;63820;65.654;21.944;2023-03-01T00:10:29;2.30;;;0.70;;
12675;SDS011;63820;65.654;21.944;2023-03-01T00:13:13;3.50;;;0.93;;
12675;SDS011;63820;65.654;21.944;2023-03-01T00:15:57;3.43;;;1.17;;
12675;SDS011;63820;65.654;21.944;2023-03-01T00:18:42;1.50;;;0.77;;
12675;SDS011;63820;65.654;21.944;2023-03-01T00:21:26;2.30;;;0.60;;
12675;SDS011;63820;65.654;21.944;2023-03-01T00:24:11;2.50;;;0.67;;
12675;SDS011;63820;65.654;21.944;2023-03-01T00:26:56;1.97;;;0.57;;
12675;SDS011;63820;65.654;21.944;2023-03-01T00:29:40;1.13;;;0.60;;
12675;SDS011;63820;65.654;21.944;2023-03-01T00:32:24;2.67;;;0.80;;
12675;SDS011;63820;65.654;21.944;2023-03-01T00:35:09;1.70;;;0.90;;
12675;SDS011;63820;65.654;21.944;2023-03-01T00:37:53;1.57;;;0.60;;
12675;SDS011;63820;65.654;21.944;2023-03-01T00:40:41;1.33;;;0.60;;
12675;SDS011;63820;65.654;21.944;2023-03-01T00:43:25;2.57;;;0.80;;
12675;SDS011;63820;65.654;21.944;2023-03-01T00:46:10;1.67;;;0.83;;
12675;SDS011;63820;65.654;21.944;2023-03-01T00:48:57;2.20;;;0.70;;
12675;SDS011;63820;65.654;21.944;2023-03-01T00:51:41;3.67;;;0.90;;
12675;SDS011;63820;65.654;21.944;2023-03-01T00:54:25;2.53;;;0.70;;
12675;SDS011;63820;65.654;21.944;2023-03-01T00:57:09;3.80;;;0.90;;
12675;SDS011;63820;65.654;21.944;2023-03-01T00:59:53;4.40;;;0.90;;
12675;SDS011;63820;65.654;21.944;2023-03-01T01:02:37;2.23;;;0.80;;
12675;SDS011;63820;65.654;21.944;2023-03-01T01:05:22;4.00;;;1.00;;
12675;SDS011;63820;65.654;21.944;2023-03-01T01:08:06;2.47;;;0.80;;
12675;SDS011;63820;65.654;21.944;2023-03-01T01:10:50;4.17;;;0.70;;
12675;SDS011;63820;65.654;21.944;2023-03-01T01:13:34;2.17;;;0.70;;
12675;SDS011;63820;65.654;21.944;2023-03-01T01:16:21;2.00;;;1.07;;
12675;SDS011;63820;65.654;21.944;2023-03-01T01:19:06;4.43;;;0.80;;
12675;SDS011;63820;65.654;21.944;2023-03-01T01:21:50;1.33;;;0.70;;
12675;SDS011;63820;65.654;21.944;2023-03-01T01:24:35;2.27;;;0.70;;
12675;SDS011;63820;65.654;21.944;2023-03-01T01:27:19;3.87;;;0.90;;
12675;SDS011;63820;65.654;21.944;2023-03-01T01:30:03;3.33;;;0.70;;
12675;SDS011;63820;65.654;21.944;2023-03-01T01:32:48;1.87;;;0.70;;
12675;SDS011;63820;65.654;21.944;2023-03-01T01:35:32;2.30;;;0.63;;
12675;SDS011;63820;65.654;21.944;2023-03-01T01:38:16;3.17;;;0.70;;
12675;SDS011;63820;65.654;21.944;2023-03-01T01:41:00;1.93;;;0.70;;
12675;SDS011;63820;65.654;21.944;2023-03-01T01:43:47;2.40;;;0.60;;
12675;SDS011;63820;65.654;21.944;2023-03-01T01:46:33;2.03;;;0.60;;
12675;SDS011;63820;65.654;21.944;2023-03-01T01:52:34;3.87;;;0.90;;
12675;SDS011;63820;65.654;21.944;2023-03-01T01:55:22;0.97;;;0.70;;
12675;SDS011;63820;65.654;21.944;2023-03-01T01:58:11;1.40;;;0.60;;
12675;SDS011;63820;65.654;21.944;2023-03-01T02:01:00;1.57;;;0.70;;
12675;SDS011;63820;65.654;21.944;2023-03-01T02:03:45;2.13;;;0.70;;
12675;SDS011;63820;65.654;21.944;2023-03-01T02:06:34;1.50;;;0.60;;
12675;SDS011;63820;65.654;21.944;2023-03-01T02:09:24;1.93;;;0.70;;
12675;SDS011;63820;65.654;21.944;2023-03-01T02:12:10;1.77;;;1.20;;
12675;SDS011;63820;65.654;21.944;2023-03-01T02:14:54;2.07;;;0.60;;
12675;SDS011;63820;65.654;21.944;2023-03-01T02:17:38;2.00;;;0.60;;
12675;SDS011;63820;65.654;21.944;2023-03-01T02:20:27;3.20;;;0.60;;
12675;SDS011;63820;65.654;21.944;2023-03-01T02:23:13;1.77;;;0.80;;
12675;SDS011;63820;65.654;21.944;2023-03-01T02:28:50;1.13;;;0.50;;
12675;SDS011;63820;65.654;21.944;2023-03-01T02:31:34;1.13;;;0.50;;
12675;SDS011;63820;65.654;21.944;2023-03-01T02:34:28;1.40;;;0.70;;
12675;SDS011;63820;65.654;21.944;2023-03-01T02:37:14;3.77;;;0.63;;
12675;SDS011;63820;65.654;21.944;2023-03-01T02:40:05;3.83;;;0.80;;
12675;SDS011;63820;65.654;21.944;2023-03-01T02:42:57;3.53;;;0.73;;
12675;SDS011;63820;65.654;21.944;2023-03-01T02:45:43;3.37;;;0.80;;
12675;SDS011;63820;65.654;21.944;2023-03-01T02:49:16;2.30;;;0.77;;
12675;SDS011;63820;65.654;21.944;2023-03-01T02:51:48;3.57;;;0.73;;
12675;SDS011;63820;65.654;21.944;2023-03-01T02:55:00;5.80;;;0.80;;
12675;SDS011;63820;65.654;21.944;2023-03-01T02:57:48;7.20;;;0.80;;
12675;SDS011;63820;65.654;21.944;2023-03-01T03:00:36;2.43;;;0.60;;
12675;SDS011;63820;65.654;21.944;2023-03-01T03:03:30;2.07;;;0.67;;
12675;SDS011;63820;65.654;21.944;2023-03-01T03:06:14;0.73;;;0.53;;
12675;SDS011;63820;65.654;21.944;2023-03-01T03:08:58;1.57;;;0.60;;
12675;SDS011;63820;65.654;21.944;2023-03-01T03:11:43;3.00;;;0.70;;
12675;SDS011;63820;65.654;21.944;2023-03-01T03:14:27;3.67;;;0.80;;
12675;SDS011;63820;65.654;21.944;2023-03-01T03:17:11;2.33;;;0.70;;
12675;SDS011;63820;65.654;21.944;2023-03-01T03:19:55;3.77;;;0.90;;
12675;SDS011;63820;65.654;21.944;2023-03-01T03:22:39;3.33;;;0.70;;
12675;SDS011;63820;65.654;21.944;2023-03-01T03:25:25;2.20;;;0.67;;
12675;SDS011;63820;65.654;21.944;2023-03-01T03:28:10;1.50;;;0.60;;
12675;SDS011;63820;65.654;21.944;2023-03-01T03:30:55;1.77;;;0.80;;
12675;SDS011;63820;65.654;21.944;2023-03-01T03:33:39;1.83;;;0.70;;
12675;SDS011;63820;65.654;21.944;2023-03-01T03:36:23;1.40;;;0.50;;
12675;SDS011;63820;65.654;21.944;2023-03-01T03:39:08;1.20;;;0.50;;
12675;SDS011;63820;65.654;21.944;2023-03-01T03:41:52;2.37;;;0.60;;
12675;SDS011;63820;65.654;21.944;2023-03-01T03:44:37;1.77;;;0.50;;
12675;SDS011;63820;65.654;21.944;2023-03-01T03:47:21;2.27;;;0.70;;
12675;SDS011;63820;65.654;21.944;2023-03-01T03:50:05;2.33;;;0.73;;
12675;SDS011;63820;65.654;21.944;2023-03-01T03:52:49;2.80;;;0.70;;
12675;SDS011;63820;65.654;21.944;2023-03-01T03:55:34;2.00;;;0.70;;
12675;SDS011;63820;65.654;21.944;2023-03-01T03:58:19;2.30;;;0.60;;
12675;SDS011;63820;65.654;21.944;2023-03-01T04:01:05;1.57;;;0.60;;
12675;SDS011;63820;65.654;21.944;2023-03-01T04:03:49;3.70;;;0.70;;
12675;SDS011;63820;65.654;21.944;2023-03-01T04:06:38;0.70;;;0.50;;
12675;SDS011;63820;65.654;21.944;2023-03-01T04:09:22;1.27;;;0.47;;
12675;SDS011;63820;65.654;21.944;2023-03-01T04:12:06;1.77;;;0.50;;
12675;SDS011;63820;65.654;21.944;2023-03-01T04:14:50;0.77;;;0.40;;
12675;SDS011;63820;65.654;21.944;2023-03-01T04:17:35;1.23;;;0.53;;
12675;SDS011;63820;65.654;21.944;2023-03-01T04:20:24;0.87;;;0.40;;
12675;SDS011;63820;65.654;21.944;2023-03-01T04:23:14;2.13;;;0.57;;
12675;SDS011;63820;65.654;21.944;2023-03-01T04:26:04;2.40;;;0.93;;
12675;SDS011;63820;65.654;21.944;2023-03-01T04:28:48;2.40;;;0.70;;
12675;SDS011;63820;65.654;21.944;2023-03-01T04:31:33;1.23;;;0.60;;
12675;SDS011;63820;65.654;21.944;2023-03-01T04:34:18;2.07;;;0.60;;
12675;SDS011;63820;65.654;21.944;2023-03-01T04:37:03;2.07;;;0.73;;
12675;SDS011;63820;65.654;21.944;2023-03-01T04:39:47;1.90;;;0.60;;
12675;SDS011;63820;65.654;21.944;2023-03-01T04:42:31;1.40;;;0.50;;
12675;SDS011;63820;65.654;21.944;2023-03-01T04:45:15;1.43;;;0.50;;
12675;SDS011;63820;65.654;21.944;2023-03-01T04:47:59;1.47;;;0.60;;
12675;SDS011;63820;65.654;21.944;2023-03-01T04:50:44;1.00;;;0.60;;
12675;SDS011;63820;65.654;21.944;2023-03-01T04:53:29;2.67;;;0.60;;
12675;SDS011;63820;65.654;21.944;2023-03-01T04:56:14;1.33;;;0.57;;
12675;SDS011;63820;65.654;21.944;2023-03-01T04:58:58;2.60;;;0.60;;
12675;SDS011;63820;65.654;21.944;2023-03-01T05:01:43;2.73;;;0.50;;
12675;SDS011;63820;65.654;21.944;2023-03-01T05:04:27;2.03;;;0.60;;
12675;SDS011;63820;65.654;21.944;2023-03-01T05:07:12;2.87;;;0.77;;
12675;SDS011;63820;65.654;21.944;2023-03-01T05:09:56;0.87;;;0.50;;
12675;SDS011;63820;65.654;21.944;2023-03-01T05:12:40;0.40;;;0.40;;
12675;SDS011;63820;65.654;21.944;2023-03-01T05:15:25;1.80;;;0.50;;
12675;SDS011;63820;65.654;21.944;2023-03-01T05:18:11;1.90;;;0.60;;
12675;SDS011;63820;65.654;21.944;2023-03-01T05:21:01;2.10;;;0.57;;
12675;SDS011;63820;65.654;21.944;2023-03-01T05:23:47;1.60;;;0.40;;
12675;SDS011;63820;65.654;21.944;2023-03-01T05:26:32;2.63;;;0.50;;
12675;SDS011;63820;65.654;21.944;2023-03-01T05:29:16;1.00;;;0.60;;
12675;SDS011;63820;65.654;21.944;2023-03-01T05:32:01;1.63;;;0.67;;
12675;SDS011;63820;65.654;21.944;2023-03-01T05:34:46;1.50;;;0.53;;
12675;SDS011;63820;65.654;21.944;2023-03-01T05:37:30;1.53;;;0.50;;
12675;SDS011;63820;65.654;21.944;2023-03-01T05:40:16;2.03;;;0.77;;
12675;SDS011;63820;65.654;21.944;2023-03-01T05:43:05;1.43;;;0.60;;
12675;SDS011;63820;65.654;21.944;2023-03-01T05:45:50;0.47;;;0.40;;
12675;SDS011;63820;65.654;21.944;2023-03-01T05:48:35;1.30;;;0.50;;
12675;SDS011;63820;65.654;21.944;2023-03-01T05:51:19;2.20;;;0.73;;
12675;SDS011;63820;65.654;21.944;2023-03-01T05:54:03;0.57;;;0.43;;
12675;SDS011;63820;65.654;21.944;2023-03-01T05:56:49;0.73;;;0.50;;
12675;SDS011;63820;65.654;21.944;2023-03-01T05:59:33;2.30;;;0.63;;
12675;SDS011;63820;65.654;21.944;2023-03-01T06:02:18;1.63;;;0.90;;
12675;SDS011;63820;65.654;21.944;2023-03-01T06:05:04;2.30;;;0.90;;
12675;SDS011;63820;65.654;21.944;2023-03-01T06:07:49;0.80;;;0.60;;
12675;SDS011;63820;65.654;21.944;2023-03-01T06:10:34;3.53;;;0.70;;
12675;SDS011;63820;65.654;21.944;2023-03-01T06:13:18;2.53;;;0.97;;
12675;SDS011;63820;65.654;21.944;2023-03-01T06:16:06;3.77;;;1.17;;
12675;SDS011;63820;65.654;21.944;2023-03-01T06:18:51;2.17;;;0.53;;
12675;SDS011;63820;65.654;21.944;2023-03-01T06:21:34;2.73;;;0.60;;
12675;SDS011;63820;65.654;21.944;2023-03-01T06:24:18;1.97;;;0.57;;
12675;SDS011;63820;65.654;21.944;2023-03-01T06:27:02;2.70;;;0.60;;
12675;SDS011;63820;65.654;21.944;2023-03-01T06:29:47;1.47;;;0.60;;
12675;SDS011;63820;65.654;21.944;2023-03-01T06:32:32;0.50;;;0.40;;
12675;SDS011;63820;65.654;21.944;2023-03-01T06:35:17;2.70;;;0.83;;
12675;SDS011;63820;65.654;21.944;2023-03-01T06:38:03;3.27;;;0.80;;
12675;SDS011;63820;65.654;21.944;2023-03-01T06:40:51;2.87;;;0.60;;
12675;SDS011;63820;65.654;21.944;2023-03-01T06:43:38;1.37;;;0.50;;
12675;SDS011;63820;65.654;21.944;2023-03-01T06:46:22;4.33;;;0.70;;
12675;SDS011;63820;65.654;21.944;2023-03-01T06:49:06;4.07;;;0.60;;
12675;SDS011;63820;65.654;21.944;2023-03-01T06:51:53;1.33;;;0.70;;
12675;SDS011;63820;65.654;21.944;2023-03-01T06:54:37;1.98;;;0.80;;
12675;SDS011;63820;65.654;21.944;2023-03-01T06:57:21;1.50;;;0.67;;
12675;SDS011;63820;65.654;21.944;2023-03-01T07:00:05;3.77;;;0.73;;
12675;SDS011;63820;65.654;21.944;2023-03-01T07:02:50;2.30;;;0.63;;
12675;SDS011;63820;65.654;21.944;2023-03-01T07:05:35;1.67;;;0.60;;
12675;SDS011;63820;65.654;21.944;2023-03-01T07:08:18;1.43;;;0.50;;
12675;SDS011;63820;65.654;21.944;2023-03-01T07:11:03;2.70;;;0.70;;
12675;SDS011;63820;65.654;21.944;2023-03-01T07:13:47;1.70;;;0.50;;
12675;SDS011;63820;65.654;21.944;2023-03-01T07:16:32;2.77;;;0.60;;
12675;SDS011;63820;65.654;21.944;2023-03-01T07:19:16;2.30;;;0.60;;
12675;SDS011;63820;65.654;21.944;2023-03-01T07:22:00;0.90;;;0.50;;
12675;SDS011;63820;65.654;21.944;2023-03-01T07:24:44;1.00;;;0.70;;
12675;SDS011;63820;65.654;21.944;2023-03-01T07:27:28;1.73;;;0.60;;
12675;SDS011;63820;65.654;21.944;2023-03-01T07:30:12;1.40;;;0.60;;
12675;SDS011;63820;65.654;21.944;2023-03-01T07:32:57;1.70;;;0.60;;
12675;SDS011;63820;65.654;21.944;2023-03-01T07:35:42;3.60;;;0.73;;
12675;SDS011;63820;65.654;21.944;2023-03-01T07:38:27;1.50;;;0.60;;
12675;SDS011;63820;65.654;21.944;2023-03-01T07:41:12;1.90;;;0.67;;
12675;SDS011;63820;65.654;21.944;2023-03-01T07:43:56;2.63;;;0.90;;
12675;SDS011;63820;65.654;21.944;2023-03-01T07:46:40;2.57;;;0.80;;
12675;SDS011;63820;65.654;21.944;2023-03-01T07:49:24;1.93;;;0.67;;
12675;SDS011;63820;65.654;21.944;2023-03-01T07:52:10;0.97;;;0.50;;
12675;SDS011;63820;65.654;21.944;2023-03-01T07:54:55;1.87;;;0.40;;
12675;SDS011;63820;65.654;21.944;2023-03-01T07:57:40;1.63;;;0.60;;
12675;SDS011;63820;65.654;21.944;2023-03-01T08:00:24;1.77;;;0.60;;
12675;SDS011;63820;65.654;21.944;2023-03-01T08:03:08;1.13;;;0.60;;
12675;SDS011;63820;65.654;21.944;2023-03-01T08:05:52;1.33;;;0.60;;
12675;SDS011;63820;65.654;21.944;2023-03-01T08:08:36;2.73;;;0.70;;
12675;SDS011;63820;65.654;21.944;2023-03-01T08:11:21;1.20;;;0.70;;
12675;SDS011;63820;65.654;21.944;2023-03-01T08:14:05;0.53;;;0.43;;
12675;SDS011;63820;65.654;21.944;2023-03-01T08:16:50;2.03;;;0.60;;
12675;SDS011;63820;65.654;21.944;2023-03-01T08:19:34;3.23;;;0.80;;
12675;SDS011;63820;65.654;21.944;2023-03-01T08:22:18;1.13;;;0.60;;
12675;SDS011;63820;65.654;21.944;2023-03-01T08:25:03;2.27;;;0.47;;
12675;SDS011;63820;65.654;21.944;2023-03-01T08:27:47;0.97;;;0.60;;
12675;SDS011;63820;65.654;21.944;2023-03-01T08:30:31;1.47;;;0.60;;
12675;SDS011;63820;65.654;21.944;2023-03-01T08:33:15;2.20;;;0.53;;
12675;SDS011;63820;65.654;21.944;2023-03-01T08:36:03;1.10;;;0.50;;
12675;SDS011;63820;65.654;21.944;2023-03-01T08:38:51;2.40;;;0.60;;
12675;SDS011;63820;65.654;21.944;2023-03-01T08:41:35;2.17;;;0.83;;
12675;SDS011;63820;65.654;21.944;2023-03-01T08:44:20;1.90;;;0.70;;
12675;SDS011;63820;65.654;21.944;2023-03-01T08:47:04;1.23;;;0.50;;
12675;SDS011;63820;65.654;21.944;2023-03-01T08:49:49;3.13;;;0.40;;
12675;SDS011;63820;65.654;21.944;2023-03-01T08:52:34;3.30;;;0.57;;
12675;SDS011;63820;65.654;21.944;2023-03-01T08:55:18;1.43;;;0.50;;
12675;SDS011;63820;65.654;21.944;2023-03-01T08:58:02;0.87;;;0.50;;
12675;SDS011;63820;65.654;21.944;2023-03-01T09:00:46;2.37;;;0.80;;
12675;SDS011;63820;65.654;21.944;2023-03-01T09:03:30;3.27;;;1.20;;
12675;SDS011;63820;65.654;21.944;2023-03-01T09:06:14;6.00;;;2.70;;
12675;SDS011;63820;65.654;21.944;2023-03-01T09:08:59;3.90;;;1.60;;
12675;SDS011;63820;65.654;21.944;2023-03-01T09:11:44;2.57;;;0.80;;
12675;SDS011;63820;65.654;21.944;2023-03-01T09:14:29;2.30;;;1.03;;
12675;SDS011;63820;65.654;21.944;2023-03-01T09:17:14;1.17;;;0.57;;
12675;SDS011;63820;65.654;21.944;2023-03-01T09:19:58;1.47;;;0.70;;
12675;SDS011;63820;65.654;21.944;2023-03-01T09:22:43;1.67;;;0.63;;
12675;SDS011;63820;65.654;21.944;2023-03-01T09:25:27;1.20;;;0.50;;
12675;SDS011;63820;65.654;21.944;2023-03-01T09:28:11;2.40;;;0.60;;
12675;SDS011;63820;65.654;21.944;2023-03-01T09:30:59;1.10;;;0.60;;
12675;SDS011;63820;65.654;21.944;2023-03-01T09:33:47;2.00;;;0.50;;
12675;SDS011;63820;65.654;21.944;2023-03-01T09:36:32;1.13;;;0.60;;
12675;SDS011;63820;65.654;21.944;2023-03-01T09:39:17;1.87;;;0.70;;
12675;SDS011;63820;65.654;21.944;2023-03-01T09:42:02;1.40;;;0.40;;
12675;SDS011;63820;65.654;21.944;2023-03-01T09:47:38;1.33;;;0.60;;
12675;SDS011;63820;65.654;21.944;2023-03-01T09:50:25;1.30;;;0.60;;
12675;SDS011;63820;65.654;21.944;2023-03-01T10:04:45;1.53;;;0.60;;
12675;SDS011;63820;65.654;21.944;2023-03-01T10:10:32;1.57;;;0.70;;
12675;SDS011;63820;65.654;21.944;2023-03-01T10:13:27;0.60;;;0.53;;
12675;SDS011;63820;65.654;21.944;2023-03-01T10:16:34;1.53;;;0.60;;
12675;SDS011;63820;65.654;21.944;2023-03-01T10:19:36;0.67;;;0.53;;
12675;SDS011;63820;65.654;21.944;2023-03-01T10:22:27;2.37;;;0.60;;
12675;SDS011;63820;65.654;21.944;2023-03-01T10:25:13;1.87;;;0.70;;
12675;SDS011;63820;65.654;21.944;2023-03-01T10:28:01;2.07;;;0.90;;
12675;SDS011;63820;65.654;21.944;2023-03-01T10:30:50;2.10;;;0.80;;
12675;SDS011;63820;65.654;21.944;2023-03-01T10:33:37;1.60;;;1.07;;
12675;SDS011;63820;65.654;21.944;2023-03-01T10:36:23;2.37;;;0.90;;
12675;SDS011;63820;65.654;21.944;2023-03-01T10:39:15;1.33;;;0.80;;
12675;SDS011;63820;65.654;21.944;2023-03-01T10:42:19;1.40;;;0.90;;
12675;SDS011;63820;65.654;21.944;2023-03-01T10:45:25;2.30;;;0.90;;
12675;SDS011;63820;65.654;21.944;2023-03-01T10:48:18;1.57;;;0.87;;
12675;SDS011;63820;65.654;21.944;2023-03-01T10:53:50;3.20;;;1.30;;
12675;SDS011;63820;65.654;21.944;2023-03-01T10:56:45;2.47;;;1.23;;
12675;SDS011;63820;65.654;21.944;2023-03-01T10:59:33;3.63;;;1.40;;
12675;SDS011;63820;65.654;21.944;2023-03-01T11:02:29;2.70;;;1.10;;
12675;SDS011;63820;65.654;21.944;2023-03-01T11:08:07;3.00;;;1.20;;
12675;SDS011;63820;65.654;21.944;2023-03-01T11:11:00;3.83;;;1.20;;
12675;SDS011;63820;65.654;21.944;2023-03-01T11:14:20;2.17;;;1.40;;
12675;SDS011;63820;65.654;21.944;2023-03-01T11:19:59;4.07;;;1.70;;
12675;SDS011;63820;65.654;21.944;2023-03-01T11:23:03;3.00;;;1.70;;
12675;SDS011;63820;65.654;21.944;2023-03-01T11:25:54;6.00;;;2.43;;
12675;SDS011;63820;65.654;21.944;2023-03-01T11:28:40;6.50;;;1.90;;
12675;SDS011;63820;65.654;21.944;2023-03-01T11:31:26;4.97;;;2.53;;
12675;SDS011;63820;65.654;21.944;2023-03-01T11:34:13;6.20;;;3.03;;
12675;SDS011;63820;65.654;21.944;2023-03-01T11:37:07;4.17;;;2.83;;
12675;SDS011;63820;65.654;21.944;2023-03-01T11:40:03;5.13;;;2.97;;
12675;SDS011;63820;65.654;21.944;2023-03-01T11:42:59;6.13;;;3.40;;
12675;SDS011;63820;65.654;21.944;2023-03-01T11:58:40;6.40;;;3.90;;
12675;SDS011;63820;65.654;21.944;2023-03-01T12:09:17;10.37;;;5.83;;
12675;SDS011;63820;65.654;21.944;2023-03-01T12:15:11;9.20;;;6.10;;
12675;SDS011;63820;65.654;21.944;2023-03-01T12:21:51;16.00;;;8.50;;
12675;SDS011;63820;65.654;21.944;2023-03-01T12:25:14;13.63;;;8.10;;
12675;SDS011;63820;65.654;21.944;2023-03-01T12:31:16;11.10;;;7.63;;
12675;SDS011;63820;65.654;21.944;2023-03-01T12:40:43;10.90;;;6.20;;
12675;SDS011;63820;65.654;21.944;2023-03-01T12:49:54;7.63;;;3.53;;
12675;SDS011;63820;65.654;21.944;2023-03-01T12:52:46;6.20;;;2.90;;
12675;SDS011;63820;65.654;21.944;2023-03-01T12:55:39;5.27;;;3.47;;
12675;SDS011;63820;65.654;21.944;2023-03-01T12:58:28;9.07;;;4.90;;
12675;SDS011;63820;65.654;21.944;2023-03-01T13:15:52;8.63;;;6.17;;
12675;SDS011;63820;65.654;21.944;2023-03-01T13:18:37;16.97;;;8.53;;
12675;SDS011;63820;65.654;21.944;2023-03-01T13:21:30;12.93;;;8.77;;
12675;SDS011;63820;65.654;21.944;2023-03-01T13:24:29;14.30;;;9.03;;
12675;SDS011;63820;65.654;21.944;2023-03-01T13:27:21;15.80;;;9.00;;
12675;SDS011;63820;65.654;21.944;2023-03-01T13:36:11;5.07;;;3.50;;
12675;SDS011;63820;65.654;21.944;2023-03-01T13:39:31;4.63;;;2.50;;
12675;SDS011;63820;65.654;21.944;2023-03-01T13:42:29;3.70;;;0.70;;
12675;SDS011;63820;65.654;21.944;2023-03-01T13:45:18;0.83;;;0.47;;
12675;SDS011;63820;65.654;21.944;2023-03-01T13:48:16;2.93;;;0.57;;
12675;SDS011;63820;65.654;21.944;2023-03-01T13:51:08;0.70;;;0.50;;
12675;SDS011;63820;65.654;21.944;2023-03-01T13:53:55;1.23;;;0.40;;
12675;SDS011;63820;65.654;21.944;2023-03-01T13:56:41;0.40;;;0.40;;
12675;SDS011;63820;65.654;21.944;2023-03-01T13:59:27;1.67;;;0.60;;
12675;SDS011;63820;65.654;21.944;2023-03-01T14:02:13;1.07;;;0.50;;
12675;SDS011;63820;65.654;21.944;2023-03-01T14:04:59;2.70;;;0.53;;
12675;SDS011;63820;65.654;21.944;2023-03-01T14:07:50;0.93;;;0.40;;
12675;SDS011;63820;65.654;21.944;2023-03-01T14:10:37;1.40;;;0.40;;
12675;SDS011;63820;65.654;21.944;2023-03-01T14:13:39;1.73;;;0.60;;
12675;SDS011;63820;65.654;21.944;2023-03-01T14:19:26;1.50;;;0.50;;
12675;SDS011;63820;65.654;21.944;2023-03-01T14:22:25;1.63;;;0.60;;
12675;SDS011;63820;65.654;21.944;2023-03-01T14:25:25;1.17;;;0.40;;
12675;SDS011;63820;65.654;21.944;2023-03-01T14:28:14;1.20;;;0.63;;
12675;SDS011;63820;65.654;21.944;2023-03-01T14:31:30;0.60;;;0.53;;
12675;SDS011;63820;65.654;21.944;2023-03-01T14:34:18;0.67;;;0.50;;
12675;SDS011;63820;65.654;21.944;2023-03-01T14:37:39;1.07;;;0.40;;
12675;SDS011;63820;65.654;21.944;2023-03-01T14:40:22;2.43;;;0.50;;
12675;SDS011;63820;65.654;21.944;2023-03-01T14:43:11;0.53;;;0.40;;
12675;SDS011;63820;65.654;21.944;2023-03-01T14:46:00;1.77;;;0.60;;
12675;SDS011;63820;65.654;21.944;2023-03-01T14:48:44;0.97;;;0.50;;
12675;SDS011;63820;65.654;21.944;2023-03-01T14:51:29;2.33;;;0.63;;
12675;SDS011;63820;65.654;21.944;2023-03-01T14:54:21;1.03;;;0.80;;
12675;SDS011;63820;65.654;21.944;2023-03-01T14:57:25;2.53;;;0.60;;
12675;SDS011;63820;65.654;21.944;2023-03-01T15:00:10;1.53;;;0.40;;
12675;SDS011;63820;65.654;21.944;2023-03-01T15:03:08;1.47;;;0.40;;
12675;SDS011;63820;65.654;21.944;2023-03-01T15:06:01;0.90;;;0.60;;
12675;SDS011;63820;65.654;21.944;2023-03-01T15:08:48;1.23;;;0.50;;
12675;SDS011;63820;65.654;21.944;2023-03-01T15:11:35;1.63;;;0.60;;
12675;SDS011;63820;65.654;21.944;2023-03-01T15:17:37;1.27;;;0.57;;
12675;SDS011;63820;65.654;21.944;2023-03-01T15:20:23;1.23;;;0.60;;
12675;SDS011;63820;65.654;21.944;2023-03-01T15:23:20;1.53;;;0.50;;
12675;SDS011;63820;65.654;21.944;2023-03-01T15:26:22;0.77;;;0.50;;
12675;SDS011;63820;65.654;21.944;2023-03-01T15:29:30;2.10;;;0.70;;
12675;SDS011;63820;65.654;21.944;2023-03-01T15:41:47;2.53;;;0.80;;
12675;SDS011;63820;65.654;21.944;2023-03-01T15:44:34;4.43;;;1.43;;
12675;SDS011;63820;65.654;21.944;2023-03-01T15:47:22;1.60;;;0.70;;
12675;SDS011;63820;65.654;21.944;2023-03-01T15:50:29;1.07;;;0.90;;
12675;SDS011;63820;65.654;21.944;2023-03-01T15:53:17;3.40;;;0.90;;
12675;SDS011;63820;65.654;21.944;2023-03-01T15:56:01;3.57;;;0.80;;
12675;SDS011;63820;65.654;21.944;2023-03-01T15:58:45;2.50;;;1.20;;
12675;SDS011;63820;65.654;21.944;2023-03-01T16:01:29;2.20;;;0.60;;
12675;SDS011;63820;65.654;21.944;2023-03-01T16:04:15;0.60;;;0.50;;
12675;SDS011;63820;65.654;21.944;2023-03-01T16:07:08;3.50;;;0.87;;
12675;SDS011;63820;65.654;21.944;2023-03-01T16:09:53;2.60;;;1.03;;
12675;SDS011;63820;65.654;21.944;2023-03-01T16:12:37;4.00;;;0.80;;
12675;SDS011;63820;65.654;21.944;2023-03-01T16:15:24;1.10;;;0.80;;
12675;SDS011;63820;65.654;21.944;2023-03-01T16:18:10;1.57;;;0.77;;
12675;SDS011;63820;65.654;21.944;2023-03-01T16:20:55;1.17;;;0.70;;
12675;SDS011;63820;65.654;21.944;2023-03-01T16:23:39;3.77;;;0.90;;
12675;SDS011;63820;65.654;21.944;2023-03-01T16:26:23;1.40;;;0.80;;
12675;SDS011;63820;65.654;21.944;2023-03-01T16:29:07;3.27;;;0.80;;
12675;SDS011;63820;65.654;21.944;2023-03-01T16:31:51;2.00;;;0.73;;
12675;SDS011;63820;65.654;21.944;2023-03-01T16:34:36;2.67;;;0.90;;
12675;SDS011;63820;65.654;21.944;2023-03-01T16:37:20;3.60;;;1.03;;
12675;SDS011;63820;65.654;21.944;2023-03-01T16:40:06;3.23;;;1.00;;
12675;SDS011;63820;65.654;21.944;2023-03-01T16:42:59;1.97;;;1.00;;
12675;SDS011;63820;65.654;21.944;2023-03-01T16:45:44;2.87;;;1.10;;
12675;SDS011;63820;65.654;21.944;2023-03-01T16:48:28;1.23;;;0.80;;
12675;SDS011;63820;65.654;21.944;2023-03-01T16:51:13;3.00;;;0.90;;
12675;SDS011;63820;65.654;21.944;2023-03-01T16:53:58;2.50;;;0.87;;
12675;SDS011;63820;65.654;21.944;2023-03-01T16:56:42;2.13;;;0.80;;
12675;SDS011;63820;65.654;21.944;2023-03-01T16:59:27;2.60;;;0.90;;
12675;SDS011;63820;65.654;21.944;2023-03-01T17:02:11;2.53;;;0.80;;
12675;SDS011;63820;65.654;21.944;2023-03-01T17:04:56;1.73;;;0.70;;
12675;SDS011;63820;65.654;21.944;2023-03-01T17:07:41;1.27;;;0.60;;
12675;SDS011;63820;65.654;21.944;2023-03-01T17:10:25;1.97;;;0.83;;
12675;SDS011;63820;65.654;21.944;2023-03-01T17:13:10;2.43;;;0.63;;
12675;SDS011;63820;65.654;21.944;2023-03-01T17:15:55;0.90;;;0.60;;
12675;SDS011;63820;65.654;21.944;2023-03-01T17:18:40;2.03;;;0.70;;
12675;SDS011;63820;65.654;21.944;2023-03-01T17:21:24;1.13;;;0.70;;
12675;SDS011;63820;65.654;21.944;2023-03-01T17:24:08;2.23;;;0.57;;
12675;SDS011;63820;65.654;21.944;2023-03-01T17:26:52;0.93;;;0.60;;
12675;SDS011;63820;65.654;21.944;2023-03-01T17:29:36;1.13;;;0.57;;
12675;SDS011;63820;65.654;21.944;2023-03-01T17:32:20;1.03;;;0.53;;
12675;SDS011;63820;65.654;21.944;2023-03-01T17:35:05;0.53;;;0.43;;
12675;SDS011;63820;65.654;21.944;2023-03-01T17:37:50;0.70;;;0.60;;
12675;SDS011;63820;65.654;21.944;2023-03-01T17:40:35;0.70;;;0.50;;
12675;SDS011;63820;65.654;21.944;2023-03-01T17:43:20;2.67;;;0.53;;
12675;SDS011;63820;65.654;21.944;2023-03-01T17:46:04;0.90;;;0.57;;
12675;SDS011;63820;65.654;21.944;2023-03-01T17:48:49;2.17;;;0.50;;
12675;SDS011;63820;65.654;21.944;2023-03-01T17:51:33;0.53;;;0.50;;
12675;SDS011;63820;65.654;21.944;2023-03-01T17:54:18;0.90;;;0.50;;
12675;SDS011;63820;65.654;21.944;2023-03-01T17:57:02;0.83;;;0.40;;
12675;SDS011;63820;65.654;21.944;2023-03-01T17:59:47;1.33;;;0.47;;
12675;SDS011;63820;65.654;21.944;2023-03-01T18:02:30;1.23;;;0.73;;
12675;SDS011;63820;65.654;21.944;2023-03-01T18:05:14;1.97;;;0.50;;
12675;SDS011;63820;65.654;21.944;2023-03-01T18:07:59;1.37;;;0.50;;
12675;SDS011;63820;65.654;21.944;2023-03-01T18:10:44;0.47;;;0.47;;
12675;SDS011;63820;65.654;21.944;2023-03-01T18:13:28;1.20;;;0.60;;
12675;SDS011;63820;65.654;21.944;2023-03-01T18:16:14;1.73;;;0.40;;
12675;SDS011;63820;65.654;21.944;2023-03-01T18:19:00;0.53;;;0.40;;
12675;SDS011;63820;65.654;21.944;2023-03-01T18:21:44;1.30;;;0.40;;
12675;SDS011;63820;65.654;21.944;2023-03-01T18:24:28;1.37;;;0.40;;